CheckWX is a tool to help pilots better visualize weather data.  It is not intended as a substitute for an official pre-flight weather briefing.

08:11:17 UTC

EVRA METAR
Riga International Airport
Riga, Latvia
Current

21 mins ago

EVRA 230750Z 16005KT CAVOK 17/M01 Q1030 NOSIG
Observed
Apr-23 @ 07:50 UTC
Wind
  • 160° at 5 KTS
Visibility
10,000+ meters
Flight Rules
VFR
Cloud Levels
  • Clear skies
Temperature
17°C / 63°F
Dewpoint
-1°C / 30°F
Humidity
30%
Altimeter
30.41" Hg
Pressure
1029.92 hPa
Previous

51 mins ago

EVRA 230720Z 16005KT 140V200 CAVOK 16/M01 Q1031 NOSIG
Observed
Apr-23 @ 07:20 UTC
Wind
  • 160° at 5 KTS
Visibility
10,000+ meters
Flight Rules
VFR
Cloud Levels
  • Clear skies
Temperature
16°C / 61°F
Dewpoint
-1°C / 30°F
Humidity
31%
Altimeter
30.44" Hg
Pressure
1030.92 hPa
Previous

1 hour ago

EVRA 230650Z 17005KT CAVOK 14/M00 Q1031 NOSIG
Observed
Apr-23 @ 06:50 UTC
Wind
  • 170° at 5 KTS
Visibility
10,000+ meters
Flight Rules
VFR
Cloud Levels
  • Clear skies
Temperature
14°C / 57°F
Dewpoint
C / 32°F
Humidity
39%
Altimeter
30.44" Hg
Pressure
1030.92 hPa